Aviation Digital Data Service (ADDS)

Output produced by METARs form (1349 UTC 21 November 2018)
found at http://aviationweather.gov/metar/data/
 
KLCH 211253Z 04006KT 10SM CLR 06/04 A3035 RMK AO2 SLP284 T00560044 $
KLCH 211138Z 2112/2212 04006KT P6SM FEW250 
     FM211500 05009KT P6SM SCT250 
     FM212200 03006KT P6SM BKN080 
     FM220200 VRB03KT P6SM -RA BKN070 
     FM220900 04005KT P6SM BKN100